Time;durP1;ratioP1;P1;durP2;ratioP2;P2;SDS_P1;SDS_P2;PMS_P1;PMS_P2;Temp;Humidity;BMP_temperature;BMP_pressure;BME280_temperature;BME280_humidity;BME280_pressure;Samples;Min_cycle;Max_cycle;Signal;HPM_P1;HPM_P2
2021/11/28 00:01:11;;;;;;;7.82;3.13;;;3.10;90.00;;;;;;5065759;28;20133;-58
2021/11/28 00:03:38;;;;;;;9.98;2.88;;;3.10;89.10;;;;;;5063786;28;20075;-55
2021/11/28 00:06:09;;;;;;;11.18;2.47;;;3.10;90.10;;;;;;5066095;28;20095;-54
2021/11/28 00:11:28;;;;;;;11.23;3.22;;;3.10;89.40;;;;;;5065196;28;20070;-55
2021/11/28 00:14:13;;;;;;;4.60;2.20;;;3.10;90.20;;;;;;5064733;28;20488;-55
2021/11/28 00:16:40;;;;;;;5.25;2.75;;;3.20;90.20;;;;;;5062865;28;20098;-54
2021/11/28 00:19:07;;;;;;;10.00;3.30;;;3.10;90.70;;;;;;5065080;28;20048;-55
2021/11/28 00:21:34;;;;;;;6.95;2.78;;;3.00;90.20;;;;;;5065552;28;20151;-60
2021/11/28 00:24:00;;;;;;;9.68;3.90;;;3.00;90.10;;;;;;5066172;28;20048;-58
2021/11/28 00:26:28;;;;;;;6.35;3.13;;;3.10;90.10;;;;;;5072767;28;20078;-65
2021/11/28 00:28:54;;;;;;;12.35;3.50;;;3.00;88.20;;;;;;5067557;28;20041;-55
2021/11/28 00:31:21;;;;;;;17.80;4.20;;;2.90;88.30;;;;;;5065645;28;20095;-53
2021/11/28 00:33:48;;;;;;;10.05;4.47;;;2.80;88.70;;;;;;5064859;28;20076;-55
2021/11/28 00:36:15;;;;;;;12.15;4.63;;;2.80;89.60;;;;;;5065677;28;20051;-56
2021/11/28 00:38:42;;;;;;;7.68;3.30;;;2.80;89.00;;;;;;5064960;28;20076;-56
2021/11/28 00:41:08;;;;;;;11.18;3.47;;;2.70;90.00;;;;;;5065467;28;20110;-54
2021/11/28 00:43:35;;;;;;;11.32;3.63;;;2.70;89.70;;;;;;5065220;28;20072;-56
2021/11/28 00:46:02;;;;;;;15.07;5.97;;;2.70;90.00;;;;;;5064971;28;20083;-57
2021/11/28 00:48:30;;;;;;;8.45;3.28;;;2.70;89.80;;;;;;4714865;28;10000437;-55
2021/11/28 00:53:47;;;;;;;9.00;3.05;;;2.70;90.30;;;;;;5067257;28;20072;-56
2021/11/28 00:56:14;;;;;;;9.98;3.53;;;2.60;89.40;;;;;;5067531;28;20052;-56
2021/11/28 00:58:40;;;;;;;9.50;3.78;;;2.60;90.20;;;;;;5068556;28;20084;-56
2021/11/28 01:01:08;;;;;;;11.48;3.58;;;2.50;90.40;;;;;;5067430;28;20079;-55
2021/11/28 01:03:35;;;;;;;8.57;3.55;;;2.50;90.20;;;;;;5068764;28;20044;-56
2021/11/28 01:06:01;;;;;;;11.30;3.92;;;2.60;90.50;;;;;;5067196;28;20118;-57
2021/11/28 01:08:29;;;;;;;12.25;3.88;;;2.60;90.40;;;;;;5067333;28;20139;-56
2021/11/28 01:10:56;;;;;;;10.63;4.15;;;2.60;90.40;;;;;;5067264;28;20080;-53
2021/11/28 01:13:22;;;;;;;12.65;4.20;;;2.60;90.50;;;;;;5067580;28;20129;-59
2021/11/28 01:15:49;;;;;;;17.67;6.20;;;2.60;90.10;;;;;;5067039;28;20048;-56
2021/11/28 01:18:16;;;;;;;11.35;5.20;;;2.60;90.80;;;;;;5067141;28;20040;-57
2021/11/28 01:20:43;;;;;;;8.93;4.15;;;2.60;90.30;;;;;;5066683;28;20045;-56
2021/11/28 01:23:10;;;;;;;16.33;6.28;;;2.70;90.50;;;;;;5067349;28;20459;-55
2021/11/28 01:25:37;;;;;;;12.60;4.75;;;2.60;90.40;;;;;;5067375;28;20323;-55
2021/11/28 01:28:03;;;;;;;12.88;5.07;;;2.60;90.50;;;;;;5067243;28;20438;-54
2021/11/28 01:30:30;;;;;;;15.77;5.53;;;2.60;90.30;;;;;;5067052;28;20091;-55
2021/11/28 01:32:57;;;;;;;12.50;6.00;;;2.70;89.40;;;;;;5067349;28;20500;-53
2021/11/28 01:35:24;;;;;;;11.18;4.90;;;2.60;90.30;;;;;;5067288;28;20442;-56
2021/11/28 01:37:51;;;;;;;12.82;4.95;;;2.60;90.30;;;;;;5066901;28;20135;-55
2021/11/28 01:40:20;;;;;;;12.43;4.75;;;2.60;90.10;;;;;;5066963;28;20088;-57
2021/11/28 01:42:49;;;;;;;15.35;5.72;;;2.50;89.40;;;;;;5065546;28;20048;-56
2021/11/28 01:45:22;;;;;;;13.32;6.05;;;2.60;90.40;;;;;;5066705;28;20106;-52
2021/11/28 01:47:49;;;;;;;11.13;5.47;;;2.60;90.20;;;;;;5070745;28;20109;-55
2021/11/28 01:50:16;;;;;;;11.88;5.03;;;2.60;90.50;;;;;;5070663;28;20052;-59
2021/11/28 01:52:43;;;;;;;11.15;4.72;;;2.60;90.50;;;;;;5059783;28;20040;-57
2021/11/28 01:55:12;;;;;;;19.17;5.47;;;2.60;90.10;;;;;;5069427;28;20153;-57
2021/11/28 01:57:39;;;;;;;16.95;5.80;;;2.50;89.00;;;;;;5071187;28;20195;-53
2021/11/28 02:00:12;;;;;;;12.05;5.38;;;2.50;90.00;;;;;;5070614;28;20453;-58
2021/11/28 02:02:38;;;;;;;10.38;5.43;;;2.50;90.10;;;;;;5068616;28;20086;-56
2021/11/28 02:05:06;;;;;;;15.45;5.35;;;2.50;89.40;;;;;;5070904;28;20068;-54
2021/11/28 02:07:33;;;;;;;16.83;5.97;;;2.40;90.00;;;;;;5070329;28;20511;-55
2021/11/28 02:09:59;;;;;;;13.05;5.05;;;2.50;90.10;;;;;;5069254;28;20083;-57
2021/11/28 02:12:29;;;;;;;14.05;5.55;;;2.50;90.20;;;;;;5068728;28;20060;-55
2021/11/28 02:14:59;;;;;;;15.07;5.20;;;2.40;90.10;;;;;;5070341;28;20267;-55
2021/11/28 02:17:26;;;;;;;16.15;5.30;;;2.50;90.60;;;;;;5070513;28;20480;-56
2021/11/28 02:19:53;;;;;;;16.05;5.50;;;2.50;90.30;;;;;;5068892;28;20083;-56
2021/11/28 02:22:20;;;;;;;14.00;4.47;;;2.50;90.30;;;;;;5070112;28;20049;-54
2021/11/28 02:24:47;;;;;;;16.42;4.57;;;2.40;89.20;;;;;;5069113;28;20052;-55
2021/11/28 02:27:14;;;;;;;12.07;5.93;;;2.40;89.40;;;;;;5070040;28;20127;-55
2021/11/28 02:29:41;;;;;;;17.08;5.00;;;2.60;90.50;;;;;;5070415;28;20128;-55
2021/11/28 02:32:09;;;;;;;16.65;5.05;;;2.40;90.40;;;;;;5070038;28;20048;-58
2021/11/28 02:34:36;;;;;;;9.65;4.32;;;2.40;90.20;;;;;;5070481;28;20621;-55
2021/11/28 02:37:03;;;;;;;15.07;4.53;;;2.40;90.60;;;;;;5069808;28;20048;-55
2021/11/28 02:39:30;;;;;;;12.63;4.47;;;2.40;90.50;;;;;;5070032;28;20060;-57
2021/11/28 02:41:57;;;;;;;9.15;4.95;;;2.40;90.10;;;;;;5068554;28;20084;-56
2021/11/28 02:44:24;;;;;;;11.43;4.53;;;2.40;90.60;;;;;;5070330;28;20071;-56
2021/11/28 02:46:50;;;;;;;11.45;4.95;;;2.40;90.50;;;;;;5069778;28;20095;-55
2021/11/28 02:49:17;;;;;;;14.48;5.13;;;2.40;90.40;;;;;;4716584;28;9999999;-56
2021/11/28 02:51:44;;;;;;;19.45;5.50;;;2.40;90.30;;;;;;5066972;28;20086;-55
2021/11/28 02:54:11;;;;;;;15.10;5.05;;;2.30;90.30;;;;;;5068823;28;20215;-52
2021/11/28 02:56:40;;;;;;;15.57;6.60;;;2.30;89.80;;;;;;5069082;28;20056;-52
2021/11/28 02:59:07;;;;;;;18.23;5.13;;;2.30;90.30;;;;;;5068951;28;20044;-54
2021/11/28 03:01:34;;;;;;;15.80;5.28;;;2.30;90.30;;;;;;5069558;28;20560;-53
2021/11/28 03:04:01;;;;;;;12.52;4.68;;;2.30;90.60;;;;;;5051632;28;20080;-56
2021/11/28 03:06:28;;;;;;;19.67;6.22;;;2.40;90.30;;;;;;5069624;28;20049;-53
2021/11/28 03:08:54;;;;;;;12.20;5.88;;;2.30;90.00;;;;;;5069229;28;20044;-56
2021/11/28 03:11:21;;;;;;;10.45;4.40;;;2.30;90.00;;;;;;5069230;28;20105;-55
2021/11/28 03:13:52;;;;;;;18.02;5.20;;;2.30;90.00;;;;;;5068275;28;20465;-55
2021/11/28 03:16:20;;;;;;;14.00;4.80;;;2.30;90.20;;;;;;5069121;28;20139;-57
2021/11/28 03:18:48;;;;;;;15.18;5.22;;;2.40;90.60;;;;;;5068988;28;20501;-53
2021/11/28 03:21:23;;;;;;;21.45;7.20;;;2.30;90.60;;;;;;5069612;28;20080;-55
2021/11/28 03:23:50;;;;;;;12.50;5.00;;;2.40;90.30;;;;;;5067837;28;20091;-54
2021/11/28 03:26:25;;;;;;;13.63;4.55;;;2.40;90.10;;;;;;5067218;28;20339;-52
2021/11/28 03:28:53;;;;;;;12.48;4.75;;;2.40;90.20;;;;;;5068170;28;20499;-52
2021/11/28 03:31:21;;;;;;;18.20;5.07;;;2.30;89.80;;;;;;5068399;28;20342;-55
2021/11/28 03:33:48;;;;;;;13.25;3.70;;;2.20;90.10;;;;;;5068646;28;20139;-55
2021/11/28 03:36:18;;;;;;;6.20;3.00;;;2.20;90.20;;;;;;5068884;28;20044;-54
2021/11/28 03:38:47;;;;;;;9.25;3.92;;;2.10;90.30;;;;;;5060295;28;20068;-56
2021/11/28 03:41:17;;;;;;;7.22;3.85;;;2.10;90.50;;;;;;5068182;28;20091;-54
2021/11/28 03:43:44;;;;;;;16.52;3.30;;;2.00;90.50;;;;;;5058902;28;20072;-54
2021/11/28 03:46:11;;;;;;;8.32;3.10;;;1.90;90.10;;;;;;5068165;28;20080;-55
2021/11/28 03:48:38;;;;;;;7.78;2.65;;;1.90;90.80;;;;;;5068334;28;20050;-55
2021/11/28 03:51:05;;;;;;;15.07;5.78;;;1.80;90.50;;;;;;5067387;28;20470;-56
2021/11/28 03:53:32;;;;;;;5.85;2.70;;;1.80;90.60;;;;;;5068811;28;20071;-56
2021/11/28 03:56:05;;;;;;;12.90;2.55;;;1.80;90.50;;;;;;5067420;28;20107;-56
2021/11/28 03:58:33;;;;;;;8.15;3.05;;;1.70;90.50;;;;;;5068640;28;20134;-56
2021/11/28 04:01:01;;;;;;;11.82;3.45;;;1.70;90.60;;;;;;5067377;28;20090;-54
2021/11/28 04:03:28;;;;;;;6.95;2.30;;;1.60;90.60;;;;;;5058129;28;20442;-55
2021/11/28 04:05:54;;;;;;;7.00;2.15;;;1.60;90.60;;;;;;5067982;28;20056;-57
2021/11/28 04:08:21;;;;;;;6.90;3.47;;;1.60;90.90;;;;;;5068651;28;20040;-55
2021/11/28 04:10:49;;;;;;;6.60;2.90;;;1.50;90.50;;;;;;5068061;28;20094;-54
2021/11/28 04:13:15;;;;;;;9.13;2.58;;;1.50;90.60;;;;;;5068482;28;20080;-59
2021/11/28 04:15:42;;;;;;;8.80;2.35;;;1.50;90.50;;;;;;5068623;28;20052;-56
2021/11/28 04:18:09;;;;;;;4.05;2.15;;;1.40;90.70;;;;;;5068190;28;20075;-55
2021/11/28 04:20:36;;;;;;;11.57;3.22;;;1.40;90.80;;;;;;5059652;28;20109;-55
2021/11/28 04:23:03;;;;;;;10.32;2.92;;;1.40;90.70;;;;;;5067891;28;20105;-56
2021/11/28 04:25:30;;;;;;;10.07;2.50;;;1.30;90.80;;;;;;5067427;28;20072;-58
2021/11/28 04:27:57;;;;;;;14.52;3.40;;;1.40;90.80;;;;;;5067807;28;20078;-56
2021/11/28 04:30:25;;;;;;;16.75;3.97;;;1.30;90.70;;;;;;5067998;28;20389;-55
2021/11/28 04:32:53;;;;;;;10.13;2.80;;;1.30;90.90;;;;;;5066085;28;20464;-55
2021/11/28 04:35:21;;;;;;;6.85;2.95;;;1.20;90.70;;;;;;5067384;28;20094;-56
2021/11/28 04:37:48;;;;;;;10.20;2.25;;;1.20;91.00;;;;;;5049192;28;20063;-53
2021/11/28 04:40:15;;;;;;;4.32;2.33;;;1.20;90.90;;;;;;5067346;28;20072;-57
2021/11/28 04:42:42;;;;;;;9.73;3.03;;;1.20;91.00;;;;;;5066931;28;20072;-55
2021/11/28 04:45:09;;;;;;;9.63;4.63;;;1.20;91.20;;;;;;5065854;28;20098;-53
2021/11/28 04:47:35;;;;;;;9.10;3.15;;;1.20;91.10;;;;;;5067103;28;20110;-56
2021/11/28 04:50:04;;;;;;;5.90;1.98;;;1.20;91.00;;;;;;5067253;28;20114;-55
2021/11/28 04:52:31;;;;;;;5.85;2.63;;;1.20;91.20;;;;;;5061418;28;20100;-54
2021/11/28 04:54:58;;;;;;;8.43;2.20;;;1.30;91.00;;;;;;5067620;28;20048;-56
2021/11/28 04:57:24;;;;;;;6.63;3.55;;;1.20;91.10;;;;;;5065597;28;20096;-55
2021/11/28 04:59:51;;;;;;;10.65;2.10;;;1.20;90.70;;;;;;5066899;28;20127;-56
2021/11/28 05:02:18;;;;;;;7.78;2.03;;;1.10;90.60;;;;;;5067240;28;20099;-55
2021/11/28 05:04:45;;;;;;;4.80;2.40;;;1.00;90.70;;;;;;5067219;28;20522;-62
2021/11/28 05:07:12;;;;;;;10.35;2.08;;;1.00;90.70;;;;;;5067583;28;20129;-55
2021/11/28 05:09:39;;;;;;;8.63;2.90;;;1.10;91.10;;;;;;5067774;28;20099;-55
2021/11/28 05:12:06;;;;;;;15.60;3.08;;;1.10;91.00;;;;;;5067153;28;20041;-54
2021/11/28 05:14:33;;;;;;;6.20;2.38;;;1.00;90.70;;;;;;5067328;28;20049;-55
2021/11/28 05:16:59;;;;;;;5.63;2.00;;;1.10;90.90;;;;;;5067068;28;20128;-55
2021/11/28 05:19:26;;;;;;;13.68;3.05;;;1.10;90.80;;;;;;5067706;28;20055;-53
2021/11/28 05:21:54;;;;;;;8.88;2.05;;;1.10;90.50;;;;;;5071192;28;20113;-56
2021/11/28 05:24:20;;;;;;;9.73;2.83;;;1.10;90.30;;;;;;5070207;28;20080;-62
2021/11/28 05:26:47;;;;;;;10.82;2.00;;;1.10;90.50;;;;;;5072665;28;20084;-56
2021/11/28 05:29:14;;;;;;;10.93;2.55;;;1.00;90.30;;;;;;5071779;28;20090;-56
2021/11/28 05:31:41;;;;;;;9.50;2.25;;;1.00;90.30;;;;;;5072236;28;20049;-56
2021/11/28 05:34:08;;;;;;;10.13;2.42;;;1.00;90.40;;;;;;5072034;28;20086;-61
2021/11/28 05:36:35;;;;;;;6.28;1.88;;;1.00;90.40;;;;;;5072346;28;20605;-55
2021/11/28 05:39:06;;;;;;;6.50;2.00;;;1.00;90.60;;;;;;5071230;28;20048;-58
2021/11/28 05:41:32;;;;;;;6.38;2.28;;;1.00;90.30;;;;;;5071061;28;20041;-57
2021/11/28 05:43:59;;;;;;;8.90;2.38;;;1.10;90.60;;;;;;5071445;28;20135;-55
2021/11/28 05:46:26;;;;;;;9.05;2.25;;;0.90;90.20;;;;;;5071276;28;20049;-55
2021/11/28 05:48:53;;;;;;;4.07;1.77;;;0.90;90.60;;;;;;5071400;28;20044;-57
2021/11/28 05:51:20;;;;;;;7.50;1.60;;;0.90;90.30;;;;;;5071699;28;20049;-57
2021/11/28 05:53:46;;;;;;;11.75;1.98;;;0.90;90.50;;;;;;5071040;28;20729;-56
2021/11/28 05:56:16;;;;;;;5.85;1.70;;;0.90;90.30;;;;;;5071356;28;20044;-55
2021/11/28 05:58:44;;;;;;;9.65;1.45;;;0.90;90.20;;;;;;5071154;28;20048;-55
2021/11/28 06:01:10;;;;;;;7.90;1.92;;;0.90;90.30;;;;;;5072056;28;20419;-58
2021/11/28 06:03:37;;;;;;;10.27;1.63;;;0.90;90.50;;;;;;5071723;28;20055;-57
2021/11/28 06:06:04;;;;;;;8.25;1.67;;;0.90;90.30;;;;;;5070225;28;20519;-55
2021/11/28 06:08:32;;;;;;;6.82;2.05;;;0.90;90.40;;;;;;5070437;28;20404;-54
2021/11/28 06:10:59;;;;;;;12.85;2.50;;;0.90;90.40;;;;;;5070355;28;20411;-55
2021/11/28 06:13:26;;;;;;;7.93;1.95;;;0.90;90.50;;;;;;5070128;28;20048;-54
2021/11/28 06:15:53;;;;;;;4.07;2.00;;;0.90;90.40;;;;;;5070060;28;20503;-58
2021/11/28 06:18:19;;;;;;;6.55;2.03;;;0.80;90.40;;;;;;5070348;28;20056;-53
2021/11/28 06:20:47;;;;;;;6.97;1.70;;;0.80;90.50;;;;;;5069942;28;20040;-54
2021/11/28 06:23:14;;;;;;;11.32;2.88;;;0.80;90.50;;;;;;5069275;28;20048;-54
2021/11/28 06:25:41;;;;;;;12.57;2.92;;;0.80;90.20;;;;;;5069885;28;20094;-53
2021/11/28 06:28:28;;;;;;;8.93;1.95;;;0.80;90.60;;;;;;5067124;28;20102;-54
2021/11/28 06:30:55;;;;;;;4.28;1.20;;;0.80;90.10;;;;;;5069241;28;20601;-56
2021/11/28 06:33:22;;;;;;;6.53;1.55;;;0.80;90.10;;;;;;5069035;28;20123;-56
2021/11/28 06:35:49;;;;;;;6.18;1.58;;;0.70;90.00;;;;;;5069172;28;20052;-56
2021/11/28 06:38:15;;;;;;;7.55;1.85;;;0.70;90.20;;;;;;5068472;28;20052;-55
2021/11/28 06:40:42;;;;;;;6.35;1.60;;;0.70;90.40;;;;;;5069504;28;20048;-55
2021/11/28 06:43:13;;;;;;;12.13;2.08;;;0.70;90.50;;;;;;5070320;28;20059;-55
2021/11/28 06:45:39;;;;;;;7.70;1.40;;;0.70;90.40;;;;;;5070146;28;20040;-52
2021/11/28 06:48:06;;;;;;;5.60;1.80;;;0.70;90.50;;;;;;5069821;28;20056;-52
2021/11/28 06:50:33;;;;;;;5.78;1.90;;;0.70;90.20;;;;;;5070316;28;20076;-55
2021/11/28 06:53:00;;;;;;;11.43;2.13;;;0.80;90.50;;;;;;5068128;28;20044;-54
2021/11/28 06:55:27;;;;;;;4.57;1.48;;;0.80;90.60;;;;;;5068520;28;20045;-56
2021/11/28 06:57:55;;;;;;;3.30;1.50;;;0.80;90.40;;;;;;5069503;28;20157;-57
2021/11/28 07:00:22;;;;;;;5.53;1.33;;;0.80;90.40;;;;;;5069048;28;20044;-54
2021/11/28 07:02:49;;;;;;;3.85;1.65;;;0.90;90.20;;;;;;5068948;28;20052;-55
2021/11/28 07:05:16;;;;;;;7.60;1.67;;;0.80;90.40;;;;;;5069077;28;20354;-56
2021/11/28 07:07:42;;;;;;;3.42;1.42;;;0.80;90.20;;;;;;5068865;28;20093;-55
2021/11/28 07:10:09;;;;;;;10.15;1.50;;;0.90;90.40;;;;;;5069236;28;20072;-54
2021/11/28 07:12:36;;;;;;;5.45;1.15;;;0.80;90.50;;;;;;5068984;28;20546;-54
2021/11/28 07:15:04;;;;;;;10.88;1.98;;;0.80;90.20;;;;;;5069951;28;20040;-56
2021/11/28 07:17:31;;;;;;;10.07;1.30;;;0.80;90.40;;;;;;5069467;28;20051;-53
2021/11/28 07:19:58;;;;;;;3.03;1.42;;;0.80;90.30;;;;;;5062738;28;20171;-57
2021/11/28 07:22:24;;;;;;;7.72;2.40;;;0.80;90.50;;;;;;5069205;28;20142;-55
2021/11/28 07:24:51;;;;;;;4.63;1.10;;;0.80;90.50;;;;;;5068371;28;20131;-55
2021/11/28 07:27:18;;;;;;;7.95;1.73;;;0.80;90.60;;;;;;5067832;28;20049;-54
2021/11/28 07:29:45;;;;;;;5.18;2.47;;;0.80;90.20;;;;;;5067225;28;20060;-55
2021/11/28 07:32:11;;;;;;;6.75;1.92;;;0.80;90.70;;;;;;5068545;28;20048;-56
2021/11/28 07:34:38;;;;;;;12.65;1.73;;;0.80;90.30;;;;;;5067465;28;20036;-56
2021/11/28 07:37:05;;;;;;;7.75;1.40;;;0.80;90.20;;;;;;5067964;28;20118;-56
2021/11/28 07:39:32;;;;;;;8.75;1.40;;;0.80;90.40;;;;;;5068164;28;20122;-55
2021/11/28 07:41:59;;;;;;;11.43;1.73;;;0.80;90.50;;;;;;5068072;28;20778;-55
2021/11/28 07:44:26;;;;;;;9.68;1.70;;;0.80;90.50;;;;;;5062247;28;20080;-54
2021/11/28 07:46:52;;;;;;;6.97;1.48;;;0.80;90.50;;;;;;5067757;28;20393;-57
2021/11/28 07:49:19;;;;;;;3.97;1.25;;;0.80;90.30;;;;;;5067144;28;20135;-56
2021/11/28 07:51:46;;;;;;;3.17;1.00;;;0.70;90.40;;;;;;5068500;28;20136;-55
2021/11/28 07:54:13;;;;;;;5.25;1.20;;;0.70;90.20;;;;;;5068991;28;20044;-56
2021/11/28 07:56:40;;;;;;;5.13;1.40;;;0.70;90.30;;;;;;5069007;28;20068;-55
2021/11/28 07:59:06;;;;;;;6.93;1.73;;;0.70;90.10;;;;;;5068261;28;20076;-57
2021/11/28 08:01:33;;;;;;;6.70;1.73;;;0.70;90.30;;;;;;5068658;28;20087;-57
2021/11/28 08:04:00;;;;;;;11.80;1.90;;;0.70;90.10;;;;;;5066778;28;20071;-57
2021/11/28 08:06:27;;;;;;;2.92;1.05;;;0.70;90.00;;;;;;5068025;28;20048;-56
2021/11/28 08:08:54;;;;;;;3.90;1.42;;;0.70;90.20;;;;;;5068538;28;20502;-57
2021/11/28 08:11:21;;;;;;;2.75;1.17;;;0.70;90.30;;;;;;5067807;28;20045;-56
2021/11/28 08:13:48;;;;;;;4.47;1.88;;;0.70;90.10;;;;;;5067418;28;20072;-57
2021/11/28 08:16:15;;;;;;;5.68;1.98;;;0.70;89.80;;;;;;5068971;28;20051;-58
2021/11/28 08:18:42;;;;;;;5.20;1.73;;;0.70;89.10;;;;;;5067907;28;20045;-57
2021/11/28 08:21:09;;;;;;;14.38;2.65;;;0.70;90.10;;;;;;5068337;28;20048;-55
2021/11/28 08:23:36;;;;;;;10.40;1.92;;;0.80;90.10;;;;;;5068132;28;20156;-57
2021/11/28 08:26:03;;;;;;;7.07;1.25;;;0.80;89.70;;;;;;5049488;28;20137;-56
2021/11/28 08:28:30;;;;;;;4.30;1.23;;;0.80;89.30;;;;;;5067780;28;20080;-54
2021/11/28 08:30:57;;;;;;;5.28;1.35;;;0.70;90.20;;;;;;5067214;28;20289;-57
2021/11/28 08:33:23;;;;;;;9.98;2.00;;;0.80;89.60;;;;;;5065898;28;20113;-56
2021/11/28 08:35:50;;;;;;;8.38;1.63;;;0.80;89.00;;;;;;5067542;28;20098;-54
2021/11/28 08:38:17;;;;;;;11.80;1.60;;;0.80;89.40;;;;;;5067010;28;20048;-56
2021/11/28 08:40:44;;;;;;;6.22;1.40;;;0.90;89.60;;;;;;5067185;28;20066;-56
2021/11/28 08:43:10;;;;;;;4.95;1.63;;;0.90;89.60;;;;;;5067156;28;20048;-56
2021/11/28 08:45:37;;;;;;;8.27;1.17;;;0.90;88.50;;;;;;5067060;28;20037;-57
2021/11/28 08:48:04;;;;;;;9.25;1.65;;;0.90;89.30;;;;;;5065539;28;20048;-53
2021/11/28 08:50:31;;;;;;;7.88;1.88;;;0.90;88.10;;;;;;5067184;28;20076;-54
2021/11/28 08:52:58;;;;;;;7.00;2.53;;;0.90;89.30;;;;;;5057046;28;20044;-56
2021/11/28 08:55:25;;;;;;;5.05;1.33;;;0.90;87.80;;;;;;5065565;28;20344;-55
2021/11/28 08:57:51;;;;;;;12.13;2.20;;;1.00;89.00;;;;;;5065724;28;20044;-54
2021/11/28 09:00:18;;;;;;;5.35;1.50;;;1.00;88.80;;;;;;5066722;28;20056;-55
2021/11/28 09:02:48;;;;;;;3.63;1.20;;;1.00;87.80;;;;;;5066675;28;20076;-54
2021/11/28 09:05:18;;;;;;;6.95;1.58;;;1.00;86.80;;;;;;5066170;28;20459;-56
2021/11/28 09:07:44;;;;;;;3.65;1.00;;;1.00;87.40;;;;;;5066905;28;20114;-52
2021/11/28 09:10:16;;;;;;;6.15;1.10;;;1.00;87.80;;;;;;5065761;28;20487;-55
2021/11/28 09:12:43;;;;;;;3.60;1.15;;;1.10;89.30;;;;;;5065245;28;20049;-55
2021/11/28 09:15:11;;;;;;;3.05;1.63;;;1.10;87.40;;;;;;5065368;28;20501;-55
2021/11/28 09:17:41;;;;;;;2.25;1.05;;;1.20;86.00;;;;;;5066837;28;20049;-54
2021/11/28 09:20:10;;;;;;;2.22;1.20;;;1.20;87.70;;;;;;5066492;28;20479;-54
2021/11/28 09:25:06;;;;;;;7.57;1.42;;;1.30;87.30;;;;;;5066584;28;20087;-55
2021/11/28 09:27:33;;;;;;;5.85;1.48;;;1.30;88.00;;;;;;5066169;28;20269;-55
2021/11/28 09:30:01;;;;;;;11.93;2.08;;;1.40;87.40;;;;;;5065650;28;20113;-52
2021/11/28 09:32:28;;;;;;;6.50;1.65;;;1.40;86.10;;;;;;5064813;28;20040;-52
2021/11/28 09:34:55;;;;;;;9.23;1.58;;;1.40;84.00;;;;;;5066726;28;20123;-52
2021/11/28 09:37:22;;;;;;;3.28;1.65;;;1.40;84.60;;;;;;5065950;28;20135;-51
2021/11/28 09:39:48;;;;;;;4.35;1.55;;;1.50;86.00;;;;;;5066825;28;20098;-52
2021/11/28 09:42:27;;;;;;;2.78;1.10;;;1.40;84.80;;;;;;5066134;28;20440;-56
2021/11/28 09:44:54;;;;;;;6.38;1.20;;;1.50;84.10;;;;;;5064863;28;20159;-55
2021/11/28 09:47:21;;;;;;;5.10;1.08;;;1.50;86.70;;;;;;5064326;28;20132;-55
2021/11/28 09:49:47;;;;;;;7.05;1.50;;;1.60;84.60;;;;;;5065553;28;20076;-55
2021/11/28 09:52:19;;;;;;;7.45;1.30;;;1.60;86.40;;;;;;5048423;28;20086;-55
2021/11/28 09:54:46;;;;;;;3.83;1.08;;;1.60;85.60;;;;;;5062770;28;20059;-56
2021/11/28 09:57:14;;;;;;;5.95;1.40;;;1.70;85.80;;;;;;5065842;28;20129;-56
2021/11/28 09:59:42;;;;;;;7.70;1.25;;;1.70;84.00;;;;;;5066761;28;20076;-54
2021/11/28 10:02:30;;;;;;;3.85;1.15;;;1.80;84.30;;;;;;5066286;28;20044;-57
2021/11/28 10:04:59;;;;;;;5.13;1.45;;;1.80;85.30;;;;;;5059615;28;20063;-54
2021/11/28 10:07:26;;;;;;;5.78;0.95;;;1.80;84.90;;;;;;4715818;27;10000636;-52
2021/11/28 10:09:53;;;;;;;5.90;1.17;;;1.90;84.20;;;;;;5065424;28;20056;-51
2021/11/28 10:12:30;;;;;;;9.60;1.35;;;1.90;84.90;;;;;;5066756;28;20080;-53
2021/11/28 10:14:58;;;;;;;7.57;1.25;;;2.00;84.50;;;;;;5066752;28;20111;-55
2021/11/28 10:17:30;;;;;;;6.10;2.17;;;2.00;84.30;;;;;;5065909;28;20139;-55
2021/11/28 10:19:57;;;;;;;5.10;1.15;;;2.00;84.90;;;;;;5067224;28;20063;-56
2021/11/28 10:22:24;;;;;;;3.25;1.05;;;2.00;85.00;;;;;;5066770;28;20048;-55
2021/11/28 10:25:04;;;;;;;4.25;1.85;;;2.10;82.70;;;;;;5066501;28;20135;-55
2021/11/28 10:27:45;;;;;;;4.82;1.45;;;2.10;82.60;;;;;;5066813;28;20048;-53
2021/11/28 10:30:28;;;;;;;7.82;1.02;;;2.10;80.10;;;;;;5066447;28;20101;-55
2021/11/28 10:32:55;;;;;;;3.85;1.60;;;2.10;80.90;;;;;;5065494;28;20048;-56
2021/11/28 10:35:22;;;;;;;5.38;1.15;;;2.20;84.50;;;;;;5064907;28;20571;-55
2021/11/28 10:37:51;;;;;;;6.80;1.52;;;2.10;82.90;;;;;;5066018;28;20064;-55
2021/11/28 10:40:26;;;;;;;4.95;1.40;;;2.70;83.50;;;;;;5065763;28;20099;-57
2021/11/28 10:43:16;;;;;;;8.35;1.20;;;2.20;82.30;;;;;;5064710;28;20084;-55
2021/11/28 10:45:48;;;;;;;7.95;1.30;;;2.30;83.50;;;;;;5064780;28;20068;-54
2021/11/28 10:48:22;;;;;;;7.50;1.58;;;2.40;81.00;;;;;;5065204;28;20064;-55
2021/11/28 10:50:49;;;;;;;3.53;1.20;;;2.40;81.30;;;;;;5065706;28;20048;-55
2021/11/28 10:53:21;;;;;;;18.40;3.90;;;2.40;84.50;;;;;;5065109;28;20056;-54
2021/11/28 10:55:56;;;;;;;10.13;1.35;;;2.50;81.50;;;;;;5057966;28;20043;-55
2021/11/28 10:58:30;;;;;;;5.28;1.20;;;2.50;81.10;;;;;;5057265;28;20087;-56
2021/11/28 11:01:00;;;;;;;5.32;1.20;;;2.50;82.80;;;;;;5063121;28;20470;-55
2021/11/28 11:03:30;;;;;;;5.22;1.80;;;2.60;80.90;;;;;;5064186;28;20048;-55
2021/11/28 11:06:16;;;;;;;13.05;1.67;;;2.60;83.20;;;;;;5064650;28;20080;-55
2021/11/28 11:08:44;;;;;;;4.90;1.85;;;2.60;81.80;;;;;;5064265;28;20094;-55
2021/11/28 11:11:13;;;;;;;9.20;2.13;;;2.70;83.10;;;;;;5064399;28;20200;-52
2021/11/28 11:14:01;;;;;;;4.13;1.38;;;2.70;81.50;;;;;;5062236;28;20566;-56
2021/11/28 11:16:42;;;;;;;9.43;1.30;;;2.80;80.80;;;;;;5063551;28;20053;-52
2021/11/28 11:19:36;;;;;;;6.15;1.23;;;2.90;80.70;;;;;;5063855;28;20127;-56
2021/11/28 11:22:05;;;;;;;;;;;2.90;80.60;;;;;;5065022;28;20083;-55
2021/11/28 11:24:33;;;;;;;6.18;1.40;;;2.90;78.20;;;;;;5063360;28;19964;-54
2021/11/28 11:27:07;;;;;;;8.38;1.27;;;3.00;82.50;;;;;;5064357;28;20094;-54
2021/11/28 11:29:34;;;;;;;6.90;1.77;;;3.00;82.00;;;;;;5065056;28;20337;-53
2021/11/28 11:32:02;;;;;;;3.75;1.17;;;3.10;81.60;;;;;;5063783;28;20127;-50
2021/11/28 11:34:32;;;;;;;5.55;1.17;;;3.10;80.70;;;;;;5065238;28;20048;-51
2021/11/28 11:37:04;;;;;;;7.50;1.20;;;3.20;81.80;;;;;;5064578;28;20530;-53
2021/11/28 11:39:33;;;;;;;8.95;2.50;;;3.20;82.10;;;;;;5065059;28;20052;-53
2021/11/28 11:42:00;;;;;;;13.02;1.55;;;3.20;79.70;;;;;;5064309;28;20084;-54
2021/11/28 11:44:27;;;;;;;12.10;2.17;;;3.30;80.20;;;;;;5063471;28;20599;-50
2021/11/28 11:46:55;;;;;;;9.85;2.58;;;3.20;79.60;;;;;;5061376;28;20057;-54
2021/11/28 11:49:22;;;;;;;6.75;1.52;;;3.40;80.60;;;;;;5057212;28;20094;-51
2021/11/28 11:51:49;;;;;;;5.97;1.20;;;3.30;82.60;;;;;;5063933;28;20102;-51
2021/11/28 11:54:24;;;;;;;2.92;0.95;;;3.30;81.20;;;;;;5063661;28;20091;-52
2021/11/28 11:57:03;;;;;;;7.97;1.58;;;3.30;78.20;;;;;;5061790;28;20131;-52
2021/11/28 11:59:53;;;;;;;8.07;0.98;;;3.40;79.60;;;;;;5054878;28;20072;-51
2021/11/28 12:02:31;;;;;;;4.60;1.70;;;3.40;78.40;;;;;;5062351;28;20149;-53
2021/11/28 12:04:59;;;;;;;5.97;1.63;;;3.40;78.00;;;;;;5063228;28;20421;-50
2021/11/28 12:07:49;;;;;;;11.77;3.15;;;3.40;76.70;;;;;;5061870;28;20469;-52
2021/11/28 12:10:25;;;;;;;4.22;1.45;;;3.40;78.70;;;;;;5062159;28;20087;-53
2021/11/28 12:12:52;;;;;;;2.90;1.00;;;3.40;79.10;;;;;;5060017;28;20040;-51
2021/11/28 12:15:24;;;;;;;3.45;1.42;;;3.50;80.90;;;;;;5061685;28;20125;-52
2021/11/28 12:17:52;;;;;;;4.25;1.27;;;3.60;79.70;;;;;;5060971;28;20098;-53
2021/11/28 12:20:48;;;;;;;6.63;1.23;;;3.60;80.40;;;;;;5060489;28;20044;-51
2021/11/28 12:23:53;;;;;;;5.22;1.00;;;3.60;76.20;;;;;;5055129;28;20048;-53
2021/11/28 12:26:32;;;;;;;3.22;1.20;;;3.60;74.40;;;;;;5061942;28;20080;-51
2021/11/28 12:29:15;;;;;;;6.97;1.67;;;3.60;76.00;;;;;;5062385;28;20105;-50
2021/11/28 12:31:46;;;;;;;13.25;1.25;;;3.50;76.10;;;;;;5061789;28;20047;-51
2021/11/28 12:34:21;;;;;;;2.58;1.05;;;3.50;74.90;;;;;;5063364;28;20056;-52
2021/11/28 12:36:50;;;;;;;17.30;2.15;;;3.50;78.50;;;;;;5059142;28;20047;-51
2021/11/28 12:39:17;;;;;;;8.80;1.65;;;3.60;77.90;;;;;;5062379;28;20118;-50
2021/11/28 12:41:52;;;;;;;9.38;1.73;;;3.70;79.40;;;;;;5061278;28;20056;-52
2021/11/28 12:44:23;;;;;;;4.82;1.02;;;3.70;78.80;;;;;;5064717;28;20048;-51
2021/11/28 12:46:55;;;;;;;6.50;2.65;;;3.80;79.40;;;;;;5064305;28;20538;-51
2021/11/28 12:49:33;;;;;;;9.18;1.23;;;3.80;77.20;;;;;;5064109;28;20052;-51
2021/11/28 12:52:25;;;;;;;6.97;1.83;;;3.80;76.60;;;;;;5064277;28;20048;-50
2021/11/28 12:55:08;;;;;;;3.13;1.10;;;3.80;78.50;;;;;;5063119;28;20051;-53
2021/11/28 12:57:42;;;;;;;7.18;1.20;;;3.80;75.30;;;;;;5064420;28;20052;-53
2021/11/28 13:00:18;;;;;;;2.63;0.80;;;3.80;76.80;;;;;;5061414;28;20075;-51
2021/11/28 13:02:52;;;;;;;4.35;1.30;;;3.90;77.20;;;;;;5064823;28;20399;-51
2021/11/28 13:05:50;;;;;;;15.57;2.08;;;3.90;76.30;;;;;;5051926;28;20533;-50
2021/11/28 13:08:20;;;;;;;10.02;1.17;;;3.90;76.70;;;;;;5056221;28;20678;-51
2021/11/28 13:11:08;;;;;;;9.20;1.75;;;4.00;75.60;;;;;;5057684;28;20127;-52